createdAt,value
2022-08-20T00:01:02.376Z,10.52
2022-08-20T00:03:34.580Z,10.15
2022-08-20T00:06:05.896Z,9.90
2022-08-20T00:08:33.791Z,10.93
2022-08-20T00:11:02.478Z,11.15
2022-08-20T00:13:32.695Z,10.40
2022-08-20T00:16:00.847Z,10.13
2022-08-20T00:18:29.005Z,9.68
2022-08-20T00:20:58.930Z,10.32
2022-08-20T00:23:26.754Z,9.43
2022-08-20T00:25:54.819Z,10.38
2022-08-20T00:28:22.869Z,9.52
2022-08-20T00:30:51.005Z,9.70
2022-08-20T00:33:22.143Z,8.75
2022-08-20T00:35:53.029Z,10.00
2022-08-20T00:38:22.237Z,10.40
2022-08-20T00:40:53.035Z,9.98
2022-08-20T00:43:37.064Z,11.88
2022-08-20T00:46:08.539Z,12.15
2022-08-20T00:48:39.290Z,11.32
2022-08-20T00:51:11.618Z,10.77
2022-08-20T00:53:40.866Z,13.00
2022-08-20T00:56:11.468Z,13.00
2022-08-20T00:58:41.190Z,12.35
2022-08-20T01:01:10.445Z,12.95
2022-08-20T01:03:38.343Z,12.15
2022-08-20T01:06:06.439Z,12.15
2022-08-20T01:08:34.252Z,12.27
2022-08-20T01:11:10.144Z,12.52
2022-08-20T01:13:39.752Z,11.95
2022-08-20T01:16:13.869Z,11.50
2022-08-20T01:21:11.403Z,12.27
2022-08-20T01:23:46.313Z,12.00
2022-08-20T01:26:18.551Z,11.43
2022-08-20T01:28:50.745Z,11.55
2022-08-20T01:31:21.880Z,10.38
2022-08-20T01:33:50.584Z,11.18
2022-08-20T01:36:23.222Z,12.75
2022-08-20T01:38:54.315Z,11.63
2022-08-20T01:41:53.418Z,10.25
2022-08-20T01:44:22.227Z,11.02
2022-08-20T01:46:57.773Z,11.13
2022-08-20T01:49:28.131Z,11.30
2022-08-20T01:52:00.641Z,11.25
2022-08-20T01:54:29.264Z,10.45
2022-08-20T01:57:03.224Z,11.00
2022-08-20T01:59:32.527Z,9.27
2022-08-20T02:02:02.524Z,12.27
2022-08-20T02:04:31.154Z,10.75
2022-08-20T02:07:01.420Z,10.73
2022-08-20T02:09:31.525Z,10.18
2022-08-20T02:12:02.920Z,10.55
2022-08-20T02:14:31.285Z,10.05
2022-08-20T02:16:59.941Z,8.65
2022-08-20T02:19:32.316Z,8.13
2022-08-20T02:22:04.502Z,8.10
2022-08-20T02:24:32.446Z,8.82
2022-08-20T02:27:03.667Z,8.13
2022-08-20T02:29:32.106Z,7.50
2022-08-20T02:32:32.161Z,7.18
2022-08-20T02:34:47.776Z,5.35
2022-08-20T02:37:16.710Z,5.45
2022-08-20T02:39:47.885Z,5.95
2022-08-20T02:42:17.339Z,6.65
2022-08-20T02:44:45.195Z,6.25
2022-08-20T02:47:12.998Z,6.05
2022-08-20T02:49:40.957Z,6.60
2022-08-20T02:52:08.787Z,6.93
2022-08-20T02:54:36.666Z,7.00
2022-08-20T02:57:05.147Z,8.27
2022-08-20T02:59:34.336Z,8.13
2022-08-20T03:02:02.191Z,8.77
2022-08-20T03:04:30.549Z,7.82
2022-08-20T03:06:58.604Z,9.45
2022-08-20T03:09:26.820Z,7.72
2022-08-20T03:11:54.710Z,7.10
2022-08-20T03:14:22.563Z,7.38
2022-08-20T03:16:52.072Z,7.40
2022-08-20T03:19:20.141Z,7.90
2022-08-20T03:21:51.098Z,8.02
2022-08-20T03:24:19.185Z,8.00
2022-08-20T03:26:47.083Z,8.20
2022-08-20T03:29:15.112Z,8.98
2022-08-20T03:31:43.002Z,8.65
2022-08-20T03:34:12.663Z,7.78
2022-08-20T03:36:40.556Z,8.18
2022-08-20T03:39:11.683Z,7.82
2022-08-20T03:41:39.745Z,8.68
2022-08-20T03:44:07.853Z,8.90
2022-08-20T03:46:36.091Z,8.73
2022-08-20T03:49:04.948Z,8.35
2022-08-20T03:51:58.359Z,8.35
2022-08-20T03:54:22.259Z,8.02
2022-08-20T03:56:50.072Z,8.90
2022-08-20T03:59:18.000Z,9.82
2022-08-20T04:01:47.005Z,10.48
2022-08-20T04:04:15.086Z,10.43
2022-08-20T04:06:45.813Z,10.82
2022-08-20T04:09:13.917Z,11.23
2022-08-20T04:11:41.985Z,11.35
2022-08-20T04:14:11.362Z,10.82
2022-08-20T04:16:43.164Z,11.50
2022-08-20T04:19:11.069Z,10.77
2022-08-20T04:21:39.603Z,10.95
2022-08-20T04:24:08.918Z,11.52
2022-08-20T04:26:51.216Z,10.77
2022-08-20T04:29:19.307Z,10.88
2022-08-20T04:31:47.371Z,11.20
2022-08-20T04:34:18.489Z,11.23
2022-08-20T04:36:47.764Z,9.93
2022-08-20T04:39:17.196Z,12.02
2022-08-20T04:41:45.479Z,12.05
2022-08-20T04:44:13.316Z,11.85
2022-08-20T04:46:41.856Z,12.05
2022-08-20T04:49:09.896Z,11.48
2022-08-20T04:51:37.876Z,12.93
2022-08-20T04:54:05.893Z,12.05
2022-08-20T04:56:38.800Z,10.38
2022-08-20T04:59:08.119Z,11.27
2022-08-20T05:01:36.606Z,10.30
2022-08-20T05:04:05.108Z,12.75
2022-08-20T05:06:33.355Z,11.63
2022-08-20T05:09:02.150Z,11.63
2022-08-20T05:11:36.124Z,12.27
2022-08-20T05:14:09.387Z,10.63
2022-08-20T05:16:38.944Z,11.63
2022-08-20T05:19:08.465Z,13.05
2022-08-20T05:21:36.428Z,12.10
2022-08-20T05:24:04.915Z,11.70
2022-08-20T05:26:33.367Z,9.68
2022-08-20T05:29:02.739Z,11.75
2022-08-20T05:31:33.787Z,11.43
2022-08-20T05:36:39.615Z,11.77
2022-08-20T05:39:08.785Z,10.20
2022-08-20T05:41:37.852Z,12.15
2022-08-20T05:44:09.900Z,11.70
2022-08-20T05:46:40.817Z,11.98
2022-08-20T05:49:09.286Z,11.52
2022-08-20T05:51:37.937Z,13.18
2022-08-20T05:54:06.939Z,13.38
2022-08-20T05:56:35.822Z,11.30
2022-08-20T05:59:05.878Z,11.63
2022-08-20T06:01:35.606Z,11.98
2022-08-20T06:04:23.627Z,11.68
2022-08-20T06:06:52.790Z,11.95
2022-08-20T06:09:30.851Z,11.77
2022-08-20T06:12:02.149Z,12.13
2022-08-20T06:14:30.972Z,11.05
2022-08-20T06:17:07.393Z,10.95
2022-08-20T06:19:37.734Z,11.45
2022-08-20T06:22:18.017Z,11.20
2022-08-20T06:24:49.694Z,11.45
2022-08-20T06:27:20.484Z,11.02
2022-08-20T06:29:48.932Z,10.80
2022-08-20T06:32:18.241Z,10.38
2022-08-20T06:34:50.256Z,10.40
2022-08-20T06:37:22.140Z,10.57
2022-08-20T06:39:50.552Z,10.38
2022-08-20T06:42:20.943Z,11.10
2022-08-20T06:44:50.256Z,11.05
2022-08-20T06:47:19.795Z,11.75
2022-08-20T06:49:49.444Z,10.82
2022-08-20T06:52:18.162Z,11.38
2022-08-20T06:54:46.565Z,12.27
2022-08-20T06:57:14.702Z,11.93
2022-08-20T06:59:42.801Z,12.40
2022-08-20T07:02:10.692Z,12.18
2022-08-20T07:04:38.496Z,10.82
2022-08-20T07:07:07.781Z,12.70
2022-08-20T07:09:35.892Z,12.10
2022-08-20T07:12:04.237Z,13.07
2022-08-20T07:14:32.494Z,12.75
2022-08-20T07:17:03.858Z,13.13
2022-08-20T07:19:37.780Z,13.38
2022-08-20T07:22:07.319Z,13.25
2022-08-20T07:24:37.840Z,12.40
2022-08-20T07:27:08.768Z,12.85
2022-08-20T07:29:50.637Z,12.13
2022-08-20T07:32:39.531Z,12.13
2022-08-20T07:35:14.366Z,12.25
2022-08-20T07:37:46.533Z,11.45
2022-08-20T07:40:21.385Z,12.05
2022-08-20T07:42:53.957Z,13.48
2022-08-20T07:45:22.133Z,12.80
2022-08-20T07:47:53.661Z,12.75
2022-08-20T07:50:26.024Z,13.05
2022-08-20T07:52:55.421Z,12.55
2022-08-20T07:55:24.998Z,12.90
2022-08-20T07:57:52.887Z,14.13
2022-08-20T08:00:24.717Z,13.45
2022-08-20T08:02:53.321Z,12.82
2022-08-20T08:05:21.309Z,12.98
2022-08-20T08:07:49.347Z,13.75
2022-08-20T08:10:23.016Z,13.70
2022-08-20T08:12:54.950Z,13.75
2022-08-20T08:15:26.171Z,13.52
2022-08-20T08:17:57.467Z,13.43
2022-08-20T08:20:25.922Z,13.77
2022-08-20T08:22:54.364Z,13.30
2022-08-20T08:25:23.659Z,15.50
2022-08-20T08:27:51.602Z,13.80
2022-08-20T08:30:19.640Z,12.85
2022-08-20T08:33:05.352Z,14.10
2022-08-20T08:35:34.089Z,14.13
2022-08-20T08:38:02.524Z,14.35
2022-08-20T08:40:33.618Z,14.15
2022-08-20T08:43:04.344Z,14.10
2022-08-20T08:45:43.724Z,13.82
2022-08-20T08:48:18.271Z,13.98
2022-08-20T08:50:53.859Z,13.18
2022-08-20T08:53:27.316Z,14.00
2022-08-20T08:55:56.663Z,14.60
2022-08-20T08:58:24.687Z,13.70
2022-08-20T09:00:55.953Z,14.35
2022-08-20T09:03:29.335Z,14.25
2022-08-20T09:05:59.905Z,13.30
2022-08-20T09:08:31.089Z,13.88
2022-08-20T09:11:05.135Z,13.93
2022-08-20T09:16:02.984Z,14.38
2022-08-20T09:18:31.078Z,12.23
2022-08-20T09:20:58.989Z,15.18
2022-08-20T09:23:27.031Z,14.07
2022-08-20T09:25:54.998Z,12.77
2022-08-20T09:28:24.526Z,13.73
2022-08-20T09:30:52.719Z,13.77
2022-08-20T09:33:20.924Z,13.85
2022-08-20T09:35:49.483Z,14.05
2022-08-20T09:38:17.387Z,13.40
2022-08-20T09:40:45.423Z,13.82
2022-08-20T09:43:13.801Z,13.45
2022-08-20T09:45:43.099Z,14.57
2022-08-20T09:48:10.923Z,16.58
2022-08-20T09:50:44.497Z,15.05
2022-08-20T09:53:13.287Z,14.10
2022-08-20T09:55:44.089Z,13.88
2022-08-20T09:58:20.316Z,14.43
2022-08-20T10:00:49.819Z,13.48
2022-08-20T10:03:18.095Z,13.75
2022-08-20T10:05:45.992Z,13.43
2022-08-20T10:08:14.624Z,13.60
2022-08-20T10:10:42.647Z,13.02
2022-08-20T10:13:13.297Z,13.13
2022-08-20T10:15:43.380Z,12.43
2022-08-20T10:18:13.578Z,13.13
2022-08-20T10:20:41.794Z,14.20
2022-08-20T10:23:09.693Z,12.75
2022-08-20T10:25:37.620Z,14.02
2022-08-20T10:28:06.905Z,13.35
2022-08-20T10:30:35.327Z,12.50
2022-08-20T10:33:03.393Z,12.93
2022-08-20T10:35:32.696Z,11.02
2022-08-20T10:38:00.752Z,11.80
2022-08-20T10:40:28.724Z,11.18
2022-08-20T10:42:56.555Z,9.35
2022-08-20T10:45:25.799Z,10.35
2022-08-20T10:47:53.762Z,8.10
2022-08-20T10:50:21.750Z,9.13
2022-08-20T10:52:50.982Z,8.00
2022-08-20T10:55:19.457Z,9.43
2022-08-20T10:57:47.820Z,8.52
2022-08-20T11:00:19.253Z,8.27
2022-08-20T11:02:47.599Z,5.35
2022-08-20T11:05:15.571Z,6.75
2022-08-20T11:07:55.527Z,6.60
2022-08-20T11:10:26.770Z,5.97
2022-08-20T11:12:54.660Z,7.22
2022-08-20T11:15:22.544Z,6.72
2022-08-20T11:17:50.657Z,7.72
2022-08-20T11:20:21.305Z,6.78
2022-08-20T11:22:49.204Z,6.95
2022-08-20T11:25:17.526Z,7.18
2022-08-20T11:27:49.299Z,6.97
2022-08-20T11:30:27.538Z,6.45
2022-08-20T11:32:55.796Z,6.70
2022-08-20T11:35:42.225Z,6.55
2022-08-20T11:38:12.816Z,5.68
2022-08-20T11:40:40.801Z,5.63
2022-08-20T11:43:14.568Z,4.70
2022-08-20T11:45:43.710Z,5.93
2022-08-20T11:48:11.591Z,4.57
2022-08-20T11:50:39.652Z,4.45
2022-08-20T11:53:08.083Z,3.97
2022-08-20T11:55:36.683Z,4.80
2022-08-20T11:58:05.093Z,4.18
2022-08-20T12:00:34.560Z,4.03
2022-08-20T12:03:05.006Z,4.13
2022-08-20T12:05:33.428Z,3.72
2022-08-20T12:08:02.374Z,3.95
2022-08-20T12:10:30.881Z,4.32
2022-08-20T12:12:59.664Z,3.65
2022-08-20T12:15:27.907Z,3.45
2022-08-20T12:17:57.829Z,3.88
2022-08-20T12:20:26.082Z,3.65
2022-08-20T12:22:55.073Z,3.17
2022-08-20T12:25:23.308Z,3.42
2022-08-20T12:27:51.551Z,3.50
2022-08-20T12:30:24.817Z,3.75
2022-08-20T12:32:53.553Z,4.03
2022-08-20T12:35:25.782Z,4.35
2022-08-20T12:37:54.011Z,4.55
2022-08-20T12:40:32.238Z,4.35
2022-08-20T12:43:01.328Z,4.78
2022-08-20T12:45:29.935Z,4.43
2022-08-20T12:48:03.741Z,4.20
2022-08-20T12:50:33.697Z,4.88
2022-08-20T12:53:02.539Z,4.25
2022-08-20T12:55:30.812Z,4.28
2022-08-20T12:58:05.084Z,3.90
2022-08-20T13:00:36.467Z,5.10
2022-08-20T13:03:07.114Z,4.05
2022-08-20T13:05:37.028Z,4.18
2022-08-20T13:08:08.961Z,4.00
2022-08-20T13:10:48.684Z,3.92
2022-08-20T13:13:21.209Z,4.00
2022-08-20T13:15:50.717Z,4.15
2022-08-20T13:18:19.244Z,3.92
2022-08-20T13:20:48.821Z,3.17
2022-08-20T13:23:16.791Z,4.15
2022-08-20T13:25:44.779Z,3.70
2022-08-20T13:28:12.659Z,3.78
2022-08-20T13:30:41.376Z,4.32
2022-08-20T13:33:09.395Z,3.63
2022-08-20T13:35:37.525Z,3.92
2022-08-20T13:38:06.994Z,4.00
2022-08-20T13:40:35.078Z,4.38
2022-08-20T13:43:06.836Z,4.32
2022-08-20T13:45:36.591Z,4.15
2022-08-20T13:48:05.493Z,5.20
2022-08-20T13:50:36.579Z,4.82
2022-08-20T13:53:07.162Z,5.13
2022-08-20T13:55:35.537Z,4.60
2022-08-20T13:58:08.038Z,4.85
2022-08-20T14:00:37.785Z,5.18
2022-08-20T14:03:07.881Z,5.68
2022-08-20T14:05:37.056Z,5.30
2022-08-20T14:08:12.214Z,6.10
2022-08-20T14:10:42.731Z,6.35
2022-08-20T14:13:15.110Z,6.15
2022-08-20T14:15:43.802Z,6.38
2022-08-20T14:18:11.882Z,6.13
2022-08-20T14:20:39.996Z,6.07
2022-08-20T14:23:10.275Z,6.93
2022-08-20T14:25:38.160Z,7.05
2022-08-20T14:28:13.404Z,5.63
2022-08-20T14:30:41.818Z,7.05
2022-08-20T14:33:10.478Z,6.38
2022-08-20T14:35:38.849Z,7.10
2022-08-20T14:38:07.192Z,6.43
2022-08-20T14:40:37.013Z,6.78
2022-08-20T14:43:04.933Z,7.60
2022-08-20T14:45:33.065Z,7.53
2022-08-20T14:48:00.945Z,6.93
2022-08-20T14:50:32.515Z,7.70
2022-08-20T14:53:01.330Z,7.68
2022-08-20T14:55:31.432Z,6.82
2022-08-20T14:58:00.922Z,6.20
2022-08-20T15:00:33.865Z,6.93
2022-08-20T15:03:04.673Z,6.40
2022-08-20T15:05:33.312Z,7.32
2022-08-20T15:08:01.331Z,7.25
2022-08-20T15:10:31.468Z,6.80
2022-08-20T15:13:02.444Z,7.55
2022-08-20T15:15:30.525Z,6.88
2022-08-20T15:18:01.114Z,6.95
2022-08-20T15:20:32.480Z,7.00
2022-08-20T15:23:01.254Z,6.78
2022-08-20T15:25:36.873Z,6.05
2022-08-20T15:28:08.650Z,6.95
2022-08-20T15:30:38.401Z,7.35
2022-08-20T15:33:06.314Z,6.82
2022-08-20T15:35:34.404Z,6.93
2022-08-20T15:38:02.681Z,6.82
2022-08-20T15:40:33.577Z,7.35
2022-08-20T15:43:03.411Z,7.40
2022-08-20T15:45:33.825Z,8.45
2022-08-20T15:48:09.173Z,6.60
2022-08-20T15:51:01.311Z,7.63
2022-08-20T15:53:34.525Z,7.60
2022-08-20T15:56:11.328Z,7.53
2022-08-20T15:58:46.115Z,7.47
2022-08-20T16:01:26.881Z,7.70
2022-08-20T16:04:20.204Z,6.70
2022-08-20T16:06:52.326Z,7.40
2022-08-20T16:09:39.246Z,7.10
2022-08-20T16:12:11.221Z,7.28
2022-08-20T16:14:41.958Z,7.95
2022-08-20T16:17:16.139Z,7.72
2022-08-20T16:19:52.871Z,7.43
2022-08-20T16:22:21.439Z,7.50
2022-08-20T16:24:50.012Z,8.35
2022-08-20T16:27:28.815Z,8.02
2022-08-20T16:30:03.225Z,8.30
2022-08-20T16:32:40.879Z,7.78
2022-08-20T16:35:29.403Z,7.53
2022-08-20T16:38:03.284Z,8.23
2022-08-20T16:40:36.236Z,8.07
2022-08-20T16:43:06.695Z,9.10
2022-08-20T16:45:42.478Z,8.68
2022-08-20T16:48:14.981Z,7.72
2022-08-20T16:50:56.447Z,7.95
2022-08-20T16:53:26.253Z,7.38
2022-08-20T16:55:55.625Z,7.28
2022-08-20T16:58:23.705Z,8.18
2022-08-20T17:01:05.966Z,8.88
2022-08-20T17:03:40.062Z,8.40
2022-08-20T17:06:20.498Z,8.45
2022-08-20T17:08:51.089Z,8.05
2022-08-20T17:11:25.861Z,9.35
2022-08-20T17:14:08.933Z,8.60
2022-08-20T17:16:41.034Z,8.70
2022-08-20T17:19:13.884Z,9.18
2022-08-20T17:21:42.716Z,8.98
2022-08-20T17:24:17.931Z,8.95
2022-08-20T17:26:49.288Z,9.57
2022-08-20T17:29:22.558Z,9.20
2022-08-20T17:31:53.432Z,10.10
2022-08-20T17:34:25.706Z,9.45
2022-08-20T17:36:57.177Z,9.02
2022-08-20T17:39:27.675Z,9.60
2022-08-20T17:42:03.992Z,8.68
2022-08-20T17:44:36.934Z,9.52
2022-08-20T17:47:11.848Z,9.15
2022-08-20T17:49:57.327Z,9.75
2022-08-20T17:52:37.774Z,9.15
2022-08-20T17:55:08.308Z,8.77
2022-08-20T17:57:39.726Z,9.18
2022-08-20T18:00:13.994Z,10.70
2022-08-20T18:02:42.389Z,9.43
2022-08-20T18:05:18.982Z,9.77
2022-08-20T18:08:02.502Z,10.82
2022-08-20T18:10:32.726Z,10.02
2022-08-20T18:13:08.541Z,8.95
2022-08-20T18:15:41.615Z,8.00
2022-08-20T18:18:21.063Z,6.40
2022-08-20T18:21:15.257Z,6.35
2022-08-20T18:23:47.914Z,7.63
2022-08-20T18:26:22.546Z,6.00
2022-08-20T18:28:54.789Z,5.50
2022-08-20T18:31:27.737Z,5.38
2022-08-20T18:33:56.470Z,5.43
2022-08-20T18:36:28.111Z,6.15
2022-08-20T18:39:05.034Z,5.47
2022-08-20T18:41:35.338Z,5.65
2022-08-20T18:44:07.488Z,5.10
2022-08-20T18:46:38.225Z,5.55
2022-08-20T18:49:08.723Z,4.93
2022-08-20T18:51:44.348Z,4.35
2022-08-20T18:54:24.881Z,4.88
2022-08-20T18:57:05.652Z,4.80
2022-08-20T18:59:39.480Z,4.63
2022-08-20T19:02:17.935Z,5.03
2022-08-20T19:04:52.842Z,5.40
2022-08-20T19:07:47.900Z,4.00
2022-08-20T19:10:34.617Z,4.22
2022-08-20T19:13:41.406Z,3.65
2022-08-20T19:16:16.298Z,3.85
2022-08-20T19:18:50.693Z,4.10
2022-08-20T19:21:24.805Z,4.00
2022-08-20T19:23:58.284Z,3.95
2022-08-20T19:26:31.425Z,3.88
2022-08-20T19:29:03.472Z,4.10
2022-08-20T19:31:36.219Z,3.92
2022-08-20T19:34:19.058Z,4.28
2022-08-20T19:36:59.211Z,4.22
2022-08-20T19:39:37.520Z,3.75
2022-08-20T19:42:16.756Z,3.87
2022-08-20T19:45:09.603Z,4.05
2022-08-20T19:47:42.144Z,3.95
2022-08-20T19:50:20.644Z,3.30
2022-08-20T19:52:58.034Z,4.38
2022-08-20T19:55:31.295Z,4.28
2022-08-20T19:58:02.374Z,4.07
2022-08-20T20:00:38.372Z,3.50
2022-08-20T20:03:11.123Z,3.78
2022-08-20T20:05:48.266Z,3.97
2022-08-20T20:08:16.239Z,4.03
2022-08-20T20:10:53.896Z,3.75
2022-08-20T20:13:27.411Z,4.03
2022-08-20T20:16:02.030Z,3.80
2022-08-20T20:18:34.837Z,3.72
2022-08-20T20:21:13.809Z,3.70
2022-08-20T20:23:46.701Z,4.07
2022-08-20T20:26:20.870Z,4.67
2022-08-20T20:28:54.194Z,4.18
2022-08-20T20:31:29.226Z,4.28
2022-08-20T20:34:03.404Z,4.20
2022-08-20T20:36:37.241Z,5.38
2022-08-20T20:39:13.708Z,4.65
2022-08-20T20:41:52.288Z,4.55
2022-08-20T20:44:22.195Z,4.70
2022-08-20T20:46:54.257Z,4.10
2022-08-20T20:49:24.828Z,4.18
2022-08-20T20:51:56.165Z,3.88
2022-08-20T20:54:30.720Z,4.05
2022-08-20T20:57:07.676Z,4.18
2022-08-20T20:59:36.984Z,4.30
2022-08-20T21:02:05.596Z,4.07
2022-08-20T21:04:33.620Z,4.28
2022-08-20T21:07:07.582Z,3.70
2022-08-20T21:09:37.074Z,4.28
2022-08-20T21:12:07.514Z,4.20
2022-08-20T21:14:36.244Z,4.50
2022-08-20T21:17:06.561Z,4.55
2022-08-20T21:19:34.822Z,4.40
2022-08-20T21:22:12.841Z,4.63
2022-08-20T21:24:40.835Z,5.38
2022-08-20T21:27:12.562Z,4.57
2022-08-20T21:29:40.718Z,5.07
2022-08-20T21:32:09.187Z,5.25
2022-08-20T21:34:41.051Z,5.13
2022-08-20T21:37:08.877Z,5.15
2022-08-20T21:39:37.255Z,4.95
2022-08-20T21:42:21.629Z,4.35
2022-08-20T21:44:57.105Z,4.95
2022-08-20T21:47:24.995Z,6.15
2022-08-20T21:49:53.124Z,4.43
2022-08-20T21:52:21.319Z,4.85
2022-08-20T21:54:49.238Z,4.45
2022-08-20T21:57:21.114Z,4.45
2022-08-20T21:59:49.920Z,5.80
2022-08-20T22:02:21.528Z,4.97
2022-08-20T22:04:56.116Z,4.45
2022-08-20T22:07:24.110Z,4.65
2022-08-20T22:09:51.984Z,4.53
2022-08-20T22:12:26.610Z,4.95
2022-08-20T22:14:54.634Z,4.50
2022-08-20T22:17:23.936Z,3.72
2022-08-20T22:19:51.975Z,3.50
2022-08-20T22:22:21.799Z,4.20
2022-08-20T22:24:49.853Z,3.88
2022-08-20T22:27:17.805Z,3.38
2022-08-20T22:29:45.692Z,4.03
2022-08-20T22:32:15.006Z,3.50
2022-08-20T22:34:46.549Z,3.60
2022-08-20T22:37:15.677Z,4.15
2022-08-20T22:39:43.891Z,4.07
2022-08-20T22:42:11.945Z,3.70
2022-08-20T22:44:40.039Z,3.70
2022-08-20T22:47:09.228Z,4.10
2022-08-20T22:49:39.741Z,3.75
2022-08-20T22:52:09.949Z,4.10
2022-08-20T22:54:39.281Z,3.90
2022-08-20T22:57:13.028Z,4.00
2022-08-20T22:59:53.257Z,3.50
2022-08-20T23:02:22.956Z,4.40
2022-08-20T23:04:51.603Z,3.90
2022-08-20T23:07:21.153Z,3.80
2022-08-20T23:09:49.390Z,3.88
2022-08-20T23:12:17.274Z,3.92
2022-08-20T23:14:45.204Z,3.70
2022-08-20T23:17:19.084Z,3.70
2022-08-20T23:19:48.839Z,3.50
2022-08-20T23:22:17.524Z,3.97
2022-08-20T23:24:47.808Z,3.70
2022-08-20T23:27:18.843Z,3.53
2022-08-20T23:29:47.071Z,4.15
2022-08-20T23:32:14.942Z,3.80
2022-08-20T23:34:42.935Z,3.92
2022-08-20T23:37:11.793Z,3.10
2022-08-20T23:39:40.293Z,3.63
2022-08-20T23:42:11.033Z,3.67
2022-08-20T23:44:39.083Z,3.53
2022-08-20T23:47:08.084Z,3.22
2022-08-20T23:49:36.321Z,3.22
2022-08-20T23:52:04.603Z,3.65
2022-08-20T23:54:33.013Z,3.20
2022-08-20T23:57:00.964Z,3.10
2022-08-20T23:59:30.157Z,2.80
